createdAt,value
2019-02-06T00:02:20.485Z,26.50
2019-02-06T00:04:51.799Z,26.07
2019-02-06T00:07:24.804Z,23.03
2019-02-06T00:09:56.555Z,27.23
2019-02-06T00:12:31.030Z,25.00
2019-02-06T00:15:01.549Z,25.03
2019-02-06T00:17:33.058Z,25.37
2019-02-06T00:20:06.893Z,28.20
2019-02-06T00:22:39.860Z,31.30
2019-02-06T00:25:11.248Z,29.73
2019-02-06T00:27:43.248Z,31.47
2019-02-06T00:30:18.134Z,29.60
2019-02-06T00:32:50.354Z,31.90
2019-02-06T00:35:25.886Z,29.90
2019-02-06T00:37:54.713Z,29.70
2019-02-06T00:40:26.549Z,31.47
2019-02-06T00:43:00.319Z,30.27
2019-02-06T00:45:30.890Z,34.67
2019-02-06T00:48:01.966Z,31.67
2019-02-06T00:50:34.157Z,37.43
2019-02-06T00:53:08.950Z,30.47
2019-02-06T00:55:41.008Z,33.83
2019-02-06T00:58:11.753Z,37.70
2019-02-06T01:00:47.045Z,31.57
2019-02-06T01:03:36.282Z,30.30
2019-02-06T01:06:11.172Z,29.17
2019-02-06T01:08:48.933Z,32.50
2019-02-06T01:11:21.315Z,34.50
2019-02-06T01:13:53.867Z,34.00
2019-02-06T01:16:25.005Z,35.33
2019-02-06T01:18:56.260Z,33.47
2019-02-06T01:21:28.866Z,38.40
2019-02-06T01:24:05.409Z,36.27
2019-02-06T01:26:39.802Z,39.00
2019-02-06T01:29:13.259Z,39.77
2019-02-06T01:31:45.551Z,41.83
2019-02-06T01:34:18.915Z,41.70
2019-02-06T01:36:51.016Z,43.27
2019-02-06T01:39:22.053Z,43.07
2019-02-06T01:41:54.081Z,42.97
2019-02-06T01:44:26.941Z,44.40
2019-02-06T01:47:01.935Z,40.87
2019-02-06T01:49:32.707Z,46.30
2019-02-06T01:52:08.442Z,43.80
2019-02-06T01:54:39.529Z,49.93
2019-02-06T01:57:10.658Z,47.47
2019-02-06T01:59:45.080Z,44.30
2019-02-06T02:02:20.165Z,42.73
2019-02-06T02:04:54.249Z,45.70
2019-02-06T02:07:31.434Z,44.57
2019-02-06T02:10:07.499Z,42.50
2019-02-06T02:12:39.233Z,46.33
2019-02-06T02:15:17.862Z,44.20
2019-02-06T02:17:48.774Z,40.57
2019-02-06T02:20:20.988Z,42.60
2019-02-06T02:22:56.950Z,41.20
2019-02-06T02:25:30.550Z,40.87
2019-02-06T02:28:03.992Z,42.33
2019-02-06T02:30:41.111Z,41.27
2019-02-06T02:33:13.273Z,38.77
2019-02-06T02:36:14.946Z,43.10
2019-02-06T02:38:38.690Z,42.13
2019-02-06T02:41:11.161Z,38.13
2019-02-06T02:43:46.052Z,41.57
2019-02-06T02:46:20.436Z,43.30
2019-02-06T02:48:55.756Z,41.53
2019-02-06T02:51:33.091Z,41.07
2019-02-06T02:54:06.761Z,43.80
2019-02-06T02:56:40.701Z,36.37
2019-02-06T02:59:14.585Z,44.33
2019-02-06T03:02:06.247Z,39.67
2019-02-06T03:04:44.737Z,36.80
2019-02-06T03:07:17.721Z,40.70
2019-02-06T03:09:50.452Z,41.90
2019-02-06T03:12:23.480Z,37.40
2019-02-06T03:14:55.000Z,40.77
2019-02-06T03:17:26.132Z,37.40
2019-02-06T03:20:00.570Z,37.20
2019-02-06T03:22:32.965Z,34.00
2019-02-06T03:25:22.002Z,40.20
2019-02-06T03:27:53.467Z,38.50
2019-02-06T03:30:24.536Z,43.10
2019-02-06T03:32:56.275Z,41.10
2019-02-06T03:35:35.486Z,40.17
2019-02-06T03:38:10.056Z,42.30
2019-02-06T03:40:45.272Z,40.50
2019-02-06T03:43:18.737Z,39.20
2019-02-06T03:45:50.376Z,37.43
2019-02-06T03:48:22.266Z,41.77
2019-02-06T03:50:53.514Z,36.10
2019-02-06T03:53:24.369Z,40.20
2019-02-06T03:55:55.481Z,42.47
2019-02-06T03:58:25.970Z,47.67
2019-02-06T04:00:57.193Z,42.87
2019-02-06T04:03:27.655Z,45.83
2019-02-06T04:05:58.850Z,40.03
2019-02-06T04:08:29.902Z,40.97
2019-02-06T04:11:00.815Z,43.67
2019-02-06T04:13:31.923Z,42.83
2019-02-06T04:16:02.553Z,42.20
2019-02-06T04:18:33.243Z,44.80
2019-02-06T04:21:05.864Z,49.07
2019-02-06T04:23:36.552Z,43.87
2019-02-06T04:26:09.713Z,50.10
2019-02-06T04:28:40.946Z,46.13
2019-02-06T04:31:12.013Z,45.77
2019-02-06T04:33:44.551Z,39.40
2019-02-06T04:36:18.544Z,43.33
2019-02-06T04:38:51.692Z,41.10
2019-02-06T04:41:24.807Z,42.27
2019-02-06T04:44:00.434Z,41.53
2019-02-06T04:46:44.761Z,50.37
2019-02-06T04:49:15.611Z,45.67
2019-02-06T04:51:46.851Z,47.20
2019-02-06T04:54:17.324Z,48.20
2019-02-06T04:56:48.269Z,49.63
2019-02-06T04:59:19.003Z,57.50
2019-02-06T05:01:49.823Z,49.23
2019-02-06T05:04:20.955Z,51.73
2019-02-06T05:06:52.006Z,51.97
2019-02-06T05:09:41.338Z,47.33
2019-02-06T05:12:17.062Z,51.50
2019-02-06T05:14:50.682Z,56.57
2019-02-06T05:17:23.360Z,56.87
2019-02-06T05:19:54.283Z,51.47
2019-02-06T05:22:25.186Z,51.30
2019-02-06T05:24:57.455Z,56.53
2019-02-06T05:27:29.902Z,58.37
2019-02-06T05:30:01.385Z,54.03
2019-02-06T05:32:33.746Z,55.10
2019-02-06T05:35:07.264Z,53.87
2019-02-06T05:37:52.689Z,55.20
2019-02-06T05:40:26.205Z,55.90
2019-02-06T05:42:58.931Z,56.30
2019-02-06T05:45:32.049Z,54.03
2019-02-06T05:48:08.971Z,51.97
2019-02-06T05:50:46.566Z,59.30
2019-02-06T05:53:17.057Z,67.10
2019-02-06T05:55:51.333Z,68.00
2019-02-06T05:58:27.261Z,69.47
2019-02-06T06:00:58.222Z,62.17
2019-02-06T06:03:30.808Z,58.80
2019-02-06T06:06:04.871Z,66.93
2019-02-06T06:08:39.513Z,57.47
2019-02-06T06:11:10.163Z,57.57
2019-02-06T06:13:44.952Z,60.47
2019-02-06T06:16:18.658Z,65.67
2019-02-06T06:18:49.503Z,63.03
2019-02-06T06:21:22.895Z,68.20
2019-02-06T06:24:12.433Z,72.83
2019-02-06T06:26:45.483Z,60.93
2019-02-06T06:29:19.062Z,61.40
2019-02-06T06:31:52.708Z,60.50
2019-02-06T06:34:25.463Z,73.07
2019-02-06T06:37:02.266Z,58.63
2019-02-06T06:39:32.835Z,59.87
2019-02-06T06:42:08.096Z,69.33
2019-02-06T06:44:41.152Z,57.40
2019-02-06T06:47:13.872Z,59.63
2019-02-06T06:49:49.208Z,55.37
2019-02-06T06:52:40.935Z,57.27
2019-02-06T06:55:18.325Z,56.80
2019-02-06T06:57:49.592Z,52.87
2019-02-06T07:00:26.936Z,63.40
2019-02-06T07:02:59.384Z,63.10
2019-02-06T07:05:32.483Z,58.27
2019-02-06T07:08:13.428Z,52.40
2019-02-06T07:10:45.483Z,57.70
2019-02-06T07:13:25.912Z,44.90
2019-02-06T07:15:56.720Z,53.47
2019-02-06T07:18:28.648Z,55.07
2019-02-06T07:21:02.656Z,55.10
2019-02-06T07:23:34.876Z,50.07
2019-02-06T07:26:09.320Z,47.73
2019-02-06T07:28:45.337Z,51.80
2019-02-06T07:31:27.957Z,50.57
2019-02-06T07:34:04.407Z,55.40
2019-02-06T07:36:39.371Z,54.73
2019-02-06T07:39:12.360Z,57.47
2019-02-06T07:41:44.882Z,48.00
2019-02-06T07:44:16.980Z,51.43
2019-02-06T07:46:53.473Z,48.07
2019-02-06T07:49:24.290Z,51.57
2019-02-06T07:51:55.218Z,54.70
2019-02-06T07:54:26.193Z,54.50
2019-02-06T07:57:15.275Z,58.80
2019-02-06T07:59:48.689Z,62.23
2019-02-06T08:02:19.768Z,64.00
2019-02-06T08:04:50.866Z,65.23
2019-02-06T08:07:41.403Z,54.33
2019-02-06T08:10:19.040Z,55.13
2019-02-06T08:12:53.196Z,49.87
2019-02-06T08:15:25.822Z,61.07
2019-02-06T08:17:59.608Z,43.90
2019-02-06T08:20:34.489Z,49.67
2019-02-06T08:23:09.566Z,50.97
2019-02-06T08:25:43.020Z,48.77
2019-02-06T08:28:15.953Z,52.00
2019-02-06T08:30:50.534Z,50.63
2019-02-06T08:33:23.602Z,47.93
2019-02-06T08:35:56.921Z,43.37
2019-02-06T08:38:27.784Z,48.57
2019-02-06T08:40:58.704Z,46.47
2019-02-06T08:43:29.694Z,44.10
2019-02-06T08:46:00.441Z,43.90
2019-02-06T08:48:34.051Z,44.93
2019-02-06T08:51:05.242Z,51.60
2019-02-06T08:53:54.292Z,43.60
2019-02-06T08:56:24.868Z,43.70
2019-02-06T08:58:56.080Z,41.97
2019-02-06T09:01:27.408Z,45.57
2019-02-06T09:03:58.147Z,46.53
2019-02-06T09:06:29.118Z,39.97
2019-02-06T09:09:00.201Z,39.70
2019-02-06T09:11:31.164Z,40.20
2019-02-06T09:14:02.209Z,41.40
2019-02-06T09:16:32.878Z,42.73
2019-02-06T09:19:06.801Z,39.33
2019-02-06T09:21:41.786Z,37.97
2019-02-06T09:24:15.028Z,38.77
2019-02-06T09:26:46.857Z,36.50
2019-02-06T09:29:33.119Z,36.80
2019-02-06T09:32:09.576Z,36.27
2019-02-06T09:34:40.062Z,34.70
2019-02-06T09:37:13.326Z,34.57
2019-02-06T09:39:48.213Z,37.63
2019-02-06T09:42:32.798Z,36.70
2019-02-06T09:45:09.896Z,39.97
2019-02-06T09:47:54.858Z,34.20
2019-02-06T09:50:30.702Z,34.80
2019-02-06T09:53:02.409Z,32.80
2019-02-06T09:55:32.943Z,34.57
2019-02-06T09:58:07.975Z,37.03
2019-02-06T10:00:42.265Z,37.17
2019-02-06T10:03:14.849Z,32.40
2019-02-06T10:05:46.079Z,33.33
2019-02-06T10:08:16.605Z,29.30
2019-02-06T10:11:02.915Z,30.80
2019-02-06T10:13:34.655Z,32.83
2019-02-06T10:16:08.296Z,28.77
2019-02-06T10:18:47.242Z,29.70
2019-02-06T10:21:18.395Z,24.47
2019-02-06T10:23:49.296Z,24.37
2019-02-06T10:26:22.716Z,28.90
2019-02-06T10:28:55.471Z,28.90
2019-02-06T10:31:28.586Z,27.83
2019-02-06T10:34:00.032Z,29.80
2019-02-06T10:36:42.657Z,27.67
2019-02-06T10:39:13.473Z,26.20
2019-02-06T10:41:45.399Z,31.70
2019-02-06T10:44:16.183Z,29.60
2019-02-06T10:46:49.296Z,31.50
2019-02-06T10:49:22.588Z,28.50
2019-02-06T10:51:54.611Z,29.43
2019-02-06T10:54:25.434Z,28.30
2019-02-06T10:57:14.362Z,32.93
2019-02-06T10:59:47.056Z,35.70
2019-02-06T11:02:19.426Z,34.03
2019-02-06T11:04:53.199Z,34.07
2019-02-06T11:07:23.685Z,32.10
2019-02-06T11:09:54.475Z,37.00
2019-02-06T11:12:25.563Z,35.73
2019-02-06T11:14:57.382Z,33.40
2019-02-06T11:17:29.498Z,32.93
2019-02-06T11:20:02.841Z,35.37
2019-02-06T11:22:36.377Z,32.27
2019-02-06T11:25:10.300Z,28.17
2019-02-06T11:27:44.324Z,31.20
2019-02-06T11:30:20.047Z,34.40
2019-02-06T11:32:51.680Z,38.10
2019-02-06T11:35:22.502Z,33.40
2019-02-06T11:37:57.354Z,32.70
2019-02-06T11:40:28.490Z,31.93
2019-02-06T11:43:01.770Z,31.57
2019-02-06T11:45:33.338Z,32.50
2019-02-06T11:48:11.810Z,30.80
2019-02-06T11:50:43.893Z,27.63
2019-02-06T11:53:19.365Z,37.90
2019-02-06T11:55:55.581Z,34.27
2019-02-06T11:58:28.058Z,24.63
2019-02-06T12:01:09.973Z,22.90
2019-02-06T12:03:42.506Z,22.70
2019-02-06T12:06:16.329Z,26.47
2019-02-06T12:08:47.068Z,22.70
2019-02-06T12:11:18.055Z,18.10
2019-02-06T12:13:48.920Z,21.43
2019-02-06T12:16:19.801Z,21.87
2019-02-06T12:18:50.829Z,25.37
2019-02-06T12:21:21.771Z,22.97
2019-02-06T12:23:58.796Z,23.70
2019-02-06T12:26:29.999Z,23.03
2019-02-06T12:29:01.511Z,20.50
2019-02-06T12:31:35.868Z,19.17
2019-02-06T12:34:11.237Z,20.67
2019-02-06T12:36:42.007Z,23.13
2019-02-06T12:39:13.833Z,24.90
2019-02-06T12:41:45.028Z,29.13
2019-02-06T12:44:15.645Z,28.43
2019-02-06T12:46:48.541Z,29.40
2019-02-06T12:49:21.124Z,29.63
2019-02-06T12:51:54.235Z,33.87
2019-02-06T12:54:26.694Z,29.03
2019-02-06T12:56:59.968Z,27.93
2019-02-06T12:59:33.384Z,24.70
2019-02-06T13:02:05.026Z,30.40
2019-02-06T13:04:35.972Z,31.17
2019-02-06T13:07:10.371Z,29.90
2019-02-06T13:09:44.132Z,31.40
2019-02-06T13:12:23.601Z,32.60
2019-02-06T13:14:55.224Z,30.23
2019-02-06T13:17:27.572Z,33.47
2019-02-06T13:20:01.139Z,31.17
2019-02-06T13:22:32.105Z,31.47
2019-02-06T13:25:06.702Z,29.23
2019-02-06T13:27:47.835Z,33.20
2019-02-06T13:30:26.427Z,27.93
2019-02-06T13:32:57.186Z,31.47
2019-02-06T13:35:30.480Z,31.30
2019-02-06T13:38:03.332Z,33.23
2019-02-06T13:40:45.065Z,31.53
2019-02-06T13:43:10.534Z,30.80
2019-02-06T13:45:48.393Z,35.23
2019-02-06T13:48:22.506Z,34.97
2019-02-06T13:50:54.972Z,32.60
2019-02-06T13:53:25.584Z,31.77
2019-02-06T13:55:56.093Z,33.27
2019-02-06T13:58:27.504Z,34.10
2019-02-06T14:00:59.569Z,37.90
2019-02-06T14:03:34.250Z,34.10
2019-02-06T14:06:07.891Z,37.73
2019-02-06T14:08:39.521Z,38.13
2019-02-06T14:11:11.543Z,37.80
2019-02-06T14:13:42.843Z,37.70
2019-02-06T14:16:13.529Z,35.40
2019-02-06T14:18:46.943Z,41.90
2019-02-06T14:21:17.428Z,39.70
2019-02-06T14:23:55.090Z,41.77
2019-02-06T14:27:09.724Z,36.47
2019-02-06T14:30:33.343Z,42.57
2019-02-06T14:33:46.585Z,32.93
2019-02-06T14:36:41.168Z,43.13
2019-02-06T14:39:26.882Z,37.33
2019-02-06T14:42:45.109Z,33.37
2019-02-06T14:45:35.641Z,31.83
2019-02-06T14:48:31.104Z,31.63
2019-02-06T14:51:40.987Z,38.70
2019-02-06T14:54:26.092Z,34.87
2019-02-06T14:57:20.493Z,29.23
2019-02-06T15:00:31.250Z,27.57
2019-02-06T15:03:45.350Z,30.43
2019-02-06T15:06:41.279Z,40.23
2019-02-06T15:10:08.024Z,29.47
2019-02-06T15:13:20.540Z,32.03
2019-02-06T15:16:30.630Z,31.10
2019-02-06T15:19:41.529Z,30.00
2019-02-06T15:23:04.470Z,30.10
2019-02-06T15:26:19.467Z,35.80
2019-02-06T15:29:18.807Z,32.40
2019-02-06T15:32:46.367Z,35.73
2019-02-06T15:35:48.206Z,29.53
2019-02-06T15:39:21.813Z,33.30
2019-02-06T15:42:22.287Z,35.40
2019-02-06T15:45:35.262Z,34.40
2019-02-06T15:48:46.248Z,32.37
2019-02-06T15:52:00.740Z,31.20
2019-02-06T15:55:21.447Z,32.60
2019-02-06T15:58:29.229Z,33.30
2019-02-06T16:01:47.289Z,31.37
2019-02-06T16:05:44.659Z,35.60
2019-02-06T16:09:08.895Z,30.50
2019-02-06T16:12:26.489Z,30.07
2019-02-06T16:15:42.422Z,29.93
2019-02-06T16:18:47.458Z,31.30
2019-02-06T16:21:59.293Z,33.10
2019-02-06T16:25:07.386Z,29.97
2019-02-06T16:28:20.089Z,31.93
2019-02-06T16:31:35.739Z,28.73
2019-02-06T16:34:41.085Z,32.37
2019-02-06T16:37:46.377Z,31.70
2019-02-06T16:40:50.237Z,30.43
2019-02-06T16:44:06.605Z,31.60
2019-02-06T16:46:55.774Z,30.00
2019-02-06T16:50:09.091Z,30.70
2019-02-06T16:53:20.731Z,28.73
2019-02-06T16:56:52.104Z,29.00
2019-02-06T17:00:13.623Z,36.27
2019-02-06T17:03:28.087Z,28.87
2019-02-06T17:06:12.280Z,31.37
2019-02-06T17:09:32.828Z,31.90
2019-02-06T17:12:28.035Z,29.47
2019-02-06T17:15:27.410Z,32.00
2019-02-06T17:18:42.103Z,38.03
2019-02-06T17:21:57.006Z,31.07
2019-02-06T17:25:07.422Z,34.13
2019-02-06T17:28:07.339Z,33.63
2019-02-06T17:31:36.546Z,29.20
2019-02-06T17:34:53.358Z,37.63
2019-02-06T17:38:05.822Z,30.20
2019-02-06T17:41:20.563Z,38.07
2019-02-06T17:44:36.979Z,31.20
2019-02-06T17:47:47.927Z,36.37
2019-02-06T17:51:07.378Z,31.13
2019-02-06T17:54:28.130Z,35.03
2019-02-06T17:56:58.697Z,31.03
2019-02-06T17:59:30.380Z,29.50
2019-02-06T18:02:09.727Z,42.50
2019-02-06T18:04:49.728Z,33.57
2019-02-06T18:07:20.203Z,30.73
2019-02-06T18:09:52.412Z,34.47
2019-02-06T18:12:41.337Z,35.17
2019-02-06T18:15:15.733Z,39.90
2019-02-06T18:17:49.508Z,32.80
2019-02-06T18:20:22.684Z,37.60
2019-02-06T18:22:53.328Z,30.40
2019-02-06T18:25:24.134Z,35.03
2019-02-06T18:27:55.169Z,38.30
2019-02-06T18:30:26.746Z,34.93
2019-02-06T18:32:59.992Z,38.40
2019-02-06T18:35:34.500Z,38.70
2019-02-06T18:38:07.039Z,41.80
2019-02-06T18:40:43.016Z,37.23
2019-02-06T18:43:17.714Z,37.30
2019-02-06T18:45:50.415Z,38.30
2019-02-06T18:48:25.544Z,38.90
2019-02-06T18:50:57.477Z,41.93
2019-02-06T18:53:28.874Z,37.13
2019-02-06T18:55:59.473Z,35.90
2019-02-06T18:58:31.254Z,39.07
2019-02-06T19:01:07.048Z,41.60
2019-02-06T19:03:41.916Z,39.77
2019-02-06T19:06:24.895Z,43.30
2019-02-06T19:08:56.078Z,49.20
2019-02-06T19:11:26.728Z,40.17
2019-02-06T19:13:58.462Z,40.60
2019-02-06T19:16:32.825Z,38.70
2019-02-06T19:19:06.629Z,41.10
2019-02-06T19:21:39.729Z,44.53
2019-02-06T19:24:11.290Z,45.60
2019-02-06T19:26:42.660Z,46.87
2019-02-06T19:29:15.875Z,42.33
2019-02-06T19:31:51.206Z,43.67
2019-02-06T19:34:24.695Z,42.40
2019-02-06T19:36:57.786Z,44.90
2019-02-06T19:39:30.907Z,44.00
2019-02-06T19:42:04.775Z,42.17
2019-02-06T19:44:42.807Z,41.90
2019-02-06T19:47:15.941Z,43.13
2019-02-06T19:49:48.487Z,41.00
2019-02-06T19:52:20.851Z,43.73
2019-02-06T19:54:52.757Z,50.53
2019-02-06T19:57:26.970Z,43.27
2019-02-06T20:00:00.339Z,43.47
2019-02-06T20:02:32.945Z,51.83
2019-02-06T20:05:08.097Z,42.37
2019-02-06T20:07:39.787Z,48.67
2019-02-06T20:10:15.198Z,40.20
2019-02-06T20:12:52.755Z,42.50
2019-02-06T20:15:23.779Z,43.50
2019-02-06T20:17:56.106Z,46.73
2019-02-06T20:20:30.252Z,43.57
2019-02-06T20:23:02.132Z,45.60
2019-02-06T20:25:33.361Z,45.27
2019-02-06T20:28:05.465Z,44.93
2019-02-06T20:30:38.380Z,40.03
2019-02-06T20:33:10.326Z,39.97
2019-02-06T20:35:51.416Z,42.53
2019-02-06T20:38:26.324Z,44.97
2019-02-06T20:41:02.480Z,41.67
2019-02-06T20:43:37.462Z,43.93
2019-02-06T20:46:12.464Z,48.23
2019-02-06T20:48:47.184Z,44.67
2019-02-06T20:51:33.643Z,41.40
2019-02-06T20:54:06.445Z,43.13
2019-02-06T20:56:36.891Z,44.70
2019-02-06T20:59:10.345Z,45.40
2019-02-06T21:01:42.080Z,43.17
2019-02-06T21:04:18.691Z,41.33
2019-02-06T21:06:49.372Z,44.40
2019-02-06T21:09:21.274Z,40.13
2019-02-06T21:11:55.763Z,38.80
2019-02-06T21:14:30.874Z,42.30
2019-02-06T21:17:02.343Z,42.27
2019-02-06T21:19:34.206Z,41.33
2019-02-06T21:22:08.262Z,39.23
2019-02-06T21:24:57.603Z,39.07
2019-02-06T21:27:36.550Z,43.10
2019-02-06T21:30:15.014Z,50.80
2019-02-06T21:32:59.783Z,41.03
2019-02-06T21:35:30.625Z,49.90
2019-02-06T21:38:03.224Z,44.43
2019-02-06T21:40:34.905Z,46.27
2019-02-06T21:43:07.554Z,43.73
2019-02-06T21:45:39.388Z,41.90
2019-02-06T21:48:29.060Z,42.23
2019-02-06T21:51:03.394Z,47.60
2019-02-06T21:53:35.568Z,41.10
2019-02-06T21:56:08.616Z,45.13
2019-02-06T21:58:40.551Z,39.77
2019-02-06T22:01:12.317Z,46.70
2019-02-06T22:03:44.947Z,43.30
2019-02-06T22:06:16.945Z,42.00
2019-02-06T22:08:47.469Z,45.23
2019-02-06T22:11:18.306Z,42.80
2019-02-06T22:13:55.277Z,47.63
2019-02-06T22:16:29.408Z,47.33
2019-02-06T22:19:01.469Z,45.97
2019-02-06T22:21:33.662Z,50.13
2019-02-06T22:24:04.855Z,43.60
2019-02-06T22:26:39.683Z,46.80
2019-02-06T22:29:25.588Z,44.57
2019-02-06T22:31:58.459Z,45.37
2019-02-06T22:34:30.250Z,50.10
2019-02-06T22:37:04.443Z,43.23
2019-02-06T22:39:36.489Z,44.50
2019-02-06T22:42:09.722Z,50.60
2019-02-06T22:44:47.513Z,46.07
2019-02-06T22:47:18.693Z,47.87
2019-02-06T22:49:53.591Z,50.13
2019-02-06T22:52:26.794Z,45.50
2019-02-06T22:55:00.640Z,42.33
2019-02-06T22:57:32.705Z,46.57
2019-02-06T23:00:24.190Z,49.50
2019-02-06T23:02:52.663Z,44.97
2019-02-06T23:05:41.588Z,54.23
2019-02-06T23:08:15.275Z,46.47
2019-02-06T23:10:48.981Z,44.97
2019-02-06T23:13:22.537Z,49.73
2019-02-06T23:15:54.935Z,52.20
2019-02-06T23:18:27.660Z,54.93
2019-02-06T23:20:59.007Z,56.00
2019-02-06T23:23:33.571Z,46.63
2019-02-06T23:26:07.171Z,53.53
2019-02-06T23:28:40.812Z,53.83
2019-02-06T23:31:29.838Z,53.77
2019-02-06T23:34:21.683Z,49.93
2019-02-06T23:37:00.764Z,57.93
2019-02-06T23:39:33.395Z,53.90
2019-02-06T23:42:08.546Z,55.57
2019-02-06T23:44:42.151Z,54.57
2019-02-06T23:47:30.973Z,54.30
2019-02-06T23:50:04.127Z,45.80
2019-02-06T23:52:53.159Z,50.60
2019-02-06T23:55:44.115Z,55.50
2019-02-06T23:58:15.832Z,53.50
